createdAt,value
2022-12-05T00:01:23.185Z,119.25
2022-12-05T00:03:54.511Z,126.60
2022-12-05T00:06:24.986Z,116.25
2022-12-05T00:08:53.185Z,130.70
2022-12-05T00:11:23.428Z,140.43
2022-12-05T00:13:53.073Z,112.97
2022-12-05T00:16:23.593Z,123.55
2022-12-05T00:18:51.791Z,124.50
2022-12-05T00:21:22.167Z,128.82
2022-12-05T00:23:52.722Z,145.77
2022-12-05T00:26:21.264Z,124.47
2022-12-05T00:28:49.361Z,135.57
2022-12-05T00:31:19.058Z,116.50
2022-12-05T00:33:48.214Z,123.70
2022-12-05T00:36:18.800Z,129.80
2022-12-05T00:38:46.773Z,123.50
2022-12-05T00:41:18.619Z,128.48
2022-12-05T00:43:46.633Z,125.32
2022-12-05T00:46:16.192Z,111.35
2022-12-05T00:48:44.161Z,126.90
2022-12-05T00:51:17.251Z,115.82
2022-12-05T00:53:45.787Z,128.38
2022-12-05T00:56:17.445Z,120.60
2022-12-05T00:58:45.932Z,130.32
2022-12-05T01:01:16.183Z,128.90
2022-12-05T01:03:45.868Z,114.13
2022-12-05T01:06:14.496Z,113.43
2022-12-05T01:08:42.581Z,102.82
2022-12-05T01:11:12.078Z,113.38
2022-12-05T01:13:41.333Z,112.78
2022-12-05T01:16:15.124Z,119.68
2022-12-05T01:18:43.207Z,118.95
2022-12-05T01:21:11.822Z,113.03
2022-12-05T01:23:39.701Z,107.88
2022-12-05T01:26:10.065Z,121.60
2022-12-05T01:28:38.606Z,113.47
2022-12-05T01:31:13.273Z,114.10
2022-12-05T01:33:41.154Z,107.03
2022-12-05T01:36:12.296Z,132.00
2022-12-05T01:38:40.886Z,129.73
2022-12-05T01:41:12.490Z,117.00
2022-12-05T01:43:55.666Z,128.82
2022-12-05T01:46:25.142Z,129.75
2022-12-05T01:48:54.815Z,116.68
2022-12-05T01:51:24.421Z,118.57
2022-12-05T01:53:52.759Z,115.78
2022-12-05T01:56:21.497Z,125.75
2022-12-05T01:58:50.244Z,130.40
2022-12-05T02:01:19.945Z,129.30
2022-12-05T02:03:53.435Z,115.43
2022-12-05T02:06:21.947Z,119.10
2022-12-05T02:08:50.850Z,112.95
2022-12-05T02:11:18.837Z,114.32
2022-12-05T02:14:05.085Z,140.82
2022-12-05T02:16:46.517Z,116.00
2022-12-05T02:19:59.348Z,137.23
2022-12-05T02:23:09.160Z,120.28
2022-12-05T02:25:58.145Z,128.35
2022-12-05T02:28:55.070Z,126.72
2022-12-05T02:31:35.070Z,122.88
2022-12-05T02:34:07.801Z,126.40
2022-12-05T02:36:41.955Z,136.95
2022-12-05T02:39:18.377Z,133.85
2022-12-05T02:41:51.839Z,130.82
2022-12-05T02:44:25.944Z,136.18
2022-12-05T02:46:56.627Z,129.20
2022-12-05T02:49:29.519Z,134.75
2022-12-05T02:52:01.115Z,114.78
2022-12-05T02:54:33.275Z,122.93
2022-12-05T02:57:02.106Z,120.15
2022-12-05T02:59:30.250Z,110.80
2022-12-05T03:01:59.466Z,107.70
2022-12-05T03:04:28.833Z,123.30
2022-12-05T03:07:00.367Z,115.70
2022-12-05T03:09:34.524Z,104.18
2022-12-05T03:12:11.834Z,112.28
2022-12-05T03:14:45.573Z,103.88
2022-12-05T03:17:21.952Z,99.97
2022-12-05T03:19:54.208Z,105.63
2022-12-05T03:22:28.793Z,94.20
2022-12-05T03:25:00.146Z,91.60
2022-12-05T03:27:33.919Z,82.53
2022-12-05T03:30:08.768Z,103.80
2022-12-05T03:32:45.502Z,89.70
2022-12-05T03:35:19.188Z,87.10
2022-12-05T03:37:52.956Z,86.43
2022-12-05T03:40:28.811Z,86.72
2022-12-05T03:43:06.101Z,78.93
2022-12-05T03:45:42.691Z,83.25
2022-12-05T03:48:20.200Z,85.65
2022-12-05T03:50:50.033Z,80.22
2022-12-05T03:53:22.159Z,80.07
2022-12-05T03:55:58.182Z,83.40
2022-12-05T03:58:32.578Z,76.20
2022-12-05T04:01:02.834Z,83.47
2022-12-05T04:03:40.330Z,77.72
2022-12-05T04:06:15.643Z,86.35
2022-12-05T04:08:48.668Z,81.65
2022-12-05T04:11:20.868Z,85.18
2022-12-05T04:13:51.499Z,78.05
2022-12-05T04:16:39.259Z,84.20
2022-12-05T04:19:16.394Z,83.07
2022-12-05T04:21:47.935Z,84.38
2022-12-05T04:24:39.347Z,87.88
2022-12-05T04:27:22.243Z,83.13
2022-12-05T04:30:01.312Z,74.00
2022-12-05T04:32:37.240Z,84.90
2022-12-05T04:35:12.712Z,77.28
2022-12-05T04:37:45.230Z,76.43
2022-12-05T04:40:20.317Z,80.10
2022-12-05T04:42:50.661Z,90.63
2022-12-05T04:45:21.226Z,82.18
2022-12-05T04:47:54.484Z,83.18
2022-12-05T04:52:56.139Z,80.82
2022-12-05T04:55:28.021Z,70.43
2022-12-05T04:58:02.873Z,73.05
2022-12-05T05:00:33.043Z,72.60
2022-12-05T05:03:07.911Z,71.32
2022-12-05T05:05:39.543Z,65.75
2022-12-05T05:08:18.273Z,69.53
2022-12-05T05:10:56.346Z,63.50
2022-12-05T05:13:24.173Z,63.80
2022-12-05T05:15:52.152Z,72.90
2022-12-05T05:18:20.137Z,64.00
2022-12-05T05:20:49.381Z,66.90
2022-12-05T05:23:17.285Z,69.03
2022-12-05T05:25:45.152Z,59.25
2022-12-05T05:28:13.056Z,62.90
2022-12-05T05:30:40.910Z,63.42
2022-12-05T05:33:08.848Z,53.30
2022-12-05T05:35:37.686Z,69.28
2022-12-05T05:38:07.370Z,56.40
2022-12-05T05:40:37.464Z,59.38
2022-12-05T05:43:05.884Z,57.03
2022-12-05T05:45:33.725Z,57.28
2022-12-05T05:48:01.681Z,53.58
2022-12-05T05:50:29.666Z,54.30
2022-12-05T05:52:57.520Z,48.28
2022-12-05T05:55:26.706Z,46.33
2022-12-05T05:57:54.574Z,44.15
2022-12-05T06:00:22.871Z,46.97
2022-12-05T06:02:50.893Z,43.75
2022-12-05T06:05:18.877Z,44.20
2022-12-05T06:07:46.793Z,41.97
2022-12-05T06:10:14.755Z,39.08
2022-12-05T06:12:43.963Z,41.78
2022-12-05T06:15:12.507Z,39.53
2022-12-05T06:17:40.403Z,39.15
2022-12-05T06:20:09.563Z,36.75
2022-12-05T06:22:37.452Z,41.15
2022-12-05T06:25:05.923Z,37.67
2022-12-05T06:27:33.806Z,36.03
2022-12-05T06:30:03.092Z,39.53
2022-12-05T06:32:30.997Z,41.72
2022-12-05T06:34:58.993Z,40.25
2022-12-05T06:37:26.854Z,47.85
2022-12-05T06:39:54.704Z,34.78
2022-12-05T06:42:23.010Z,37.28
2022-12-05T06:44:50.914Z,37.15
2022-12-05T06:47:20.137Z,39.80
2022-12-05T06:49:48.037Z,36.03
2022-12-05T06:52:15.965Z,38.85
2022-12-05T06:54:43.906Z,38.97
2022-12-05T06:57:11.772Z,42.33
2022-12-05T06:59:39.745Z,42.17
2022-12-05T07:02:08.373Z,48.65
2022-12-05T07:04:37.828Z,44.40
2022-12-05T07:07:05.905Z,47.50
2022-12-05T07:09:48.195Z,38.42
2022-12-05T07:12:18.637Z,38.30
2022-12-05T07:14:49.022Z,41.63
2022-12-05T07:17:18.105Z,36.63
2022-12-05T07:19:49.178Z,39.25
2022-12-05T07:22:18.729Z,31.80
2022-12-05T07:24:47.536Z,38.25
2022-12-05T07:27:20.548Z,43.10
2022-12-05T07:29:52.101Z,40.08
2022-12-05T07:32:20.165Z,38.95
2022-12-05T07:34:54.758Z,40.83
2022-12-05T07:37:23.823Z,38.90
2022-12-05T07:39:53.031Z,39.53
2022-12-05T07:42:20.960Z,37.58
2022-12-05T07:44:48.909Z,41.35
2022-12-05T07:47:16.911Z,42.38
2022-12-05T07:49:44.819Z,50.35
2022-12-05T07:52:14.177Z,40.85
2022-12-05T07:54:42.295Z,42.35
2022-12-05T07:57:10.250Z,35.55
2022-12-05T07:59:38.273Z,41.47
2022-12-05T08:02:06.245Z,32.00
2022-12-05T08:04:34.277Z,32.78
2022-12-05T08:07:02.157Z,32.42
2022-12-05T08:09:31.639Z,37.38
2022-12-05T08:11:59.621Z,39.28
2022-12-05T08:14:27.519Z,32.72
2022-12-05T08:16:55.421Z,36.88
2022-12-05T08:19:23.449Z,32.08
2022-12-05T08:21:52.396Z,31.85
2022-12-05T08:24:20.313Z,30.20
2022-12-05T08:26:49.501Z,32.70
2022-12-05T08:29:21.290Z,36.15
2022-12-05T08:31:51.180Z,33.40
2022-12-05T08:34:21.049Z,36.53
2022-12-05T08:36:48.968Z,35.08
2022-12-05T08:39:18.814Z,35.45
2022-12-05T08:41:47.994Z,37.60
2022-12-05T08:44:18.622Z,38.00
2022-12-05T08:46:48.287Z,32.47
2022-12-05T08:49:16.923Z,40.72
2022-12-05T08:51:45.075Z,38.15
2022-12-05T08:54:13.011Z,40.53
2022-12-05T08:56:40.907Z,36.45
2022-12-05T08:59:09.122Z,31.38
2022-12-05T09:01:39.517Z,36.05
2022-12-05T09:04:08.937Z,37.33
2022-12-05T09:06:39.425Z,36.92
2022-12-05T09:09:11.587Z,34.15
2022-12-05T09:11:44.038Z,40.40
2022-12-05T09:14:11.982Z,33.93
2022-12-05T09:16:41.612Z,31.95
2022-12-05T09:19:14.441Z,33.05
2022-12-05T09:21:43.477Z,33.03
2022-12-05T09:24:12.703Z,35.78
2022-12-05T09:26:41.313Z,34.85
2022-12-05T09:29:15.733Z,38.28
2022-12-05T09:31:46.651Z,33.70
2022-12-05T09:34:15.320Z,38.67
2022-12-05T09:36:44.018Z,37.10
2022-12-05T09:39:12.436Z,35.65
2022-12-05T09:42:08.336Z,35.55
2022-12-05T09:44:58.428Z,30.60
2022-12-05T09:47:37.445Z,34.10
2022-12-05T09:50:15.478Z,38.38
2022-12-05T09:52:56.479Z,34.55
2022-12-05T09:55:24.417Z,33.63
2022-12-05T09:57:55.276Z,32.33
2022-12-05T10:00:23.342Z,35.83
2022-12-05T10:03:03.874Z,35.20
2022-12-05T10:05:41.361Z,37.38
2022-12-05T10:08:19.320Z,36.10
2022-12-05T10:11:01.221Z,36.08
2022-12-05T10:13:46.418Z,34.88
2022-12-05T10:16:19.125Z,36.95
2022-12-05T10:18:51.634Z,44.38
2022-12-05T10:21:23.447Z,40.53
2022-12-05T10:23:58.293Z,39.78
2022-12-05T10:26:30.782Z,37.22
2022-12-05T10:29:08.921Z,33.95
2022-12-05T10:31:39.487Z,34.83
2022-12-05T10:34:16.440Z,38.30
2022-12-05T10:36:52.173Z,37.17
2022-12-05T10:39:20.125Z,40.85
2022-12-05T10:41:48.086Z,35.95
2022-12-05T10:44:15.997Z,35.08
2022-12-05T10:46:43.943Z,35.05
2022-12-05T10:49:13.951Z,35.00
2022-12-05T10:51:42.452Z,36.15
2022-12-05T10:54:18.093Z,33.67
2022-12-05T10:56:47.637Z,32.15
2022-12-05T10:59:17.854Z,33.30
2022-12-05T11:01:49.606Z,35.60
2022-12-05T11:04:26.108Z,40.20
2022-12-05T11:06:57.650Z,39.72
2022-12-05T11:09:28.255Z,35.63
2022-12-05T11:12:07.368Z,37.38
2022-12-05T11:14:36.407Z,40.60
2022-12-05T11:17:06.806Z,38.30
2022-12-05T11:19:38.071Z,42.55
2022-12-05T11:22:08.004Z,35.72
2022-12-05T11:24:38.158Z,38.08
2022-12-05T11:27:22.156Z,34.72
2022-12-05T11:29:57.734Z,38.83
2022-12-05T11:32:27.338Z,41.90
2022-12-05T11:35:04.398Z,43.28
2022-12-05T11:37:38.421Z,37.75
2022-12-05T11:40:16.369Z,40.33
2022-12-05T11:43:02.865Z,41.58
2022-12-05T11:45:48.405Z,33.83
2022-12-05T11:48:37.789Z,38.78
2022-12-05T11:51:21.827Z,42.95
2022-12-05T11:54:30.640Z,36.65
2022-12-05T11:57:12.381Z,37.55
2022-12-05T12:00:05.344Z,43.42
2022-12-05T12:03:00.225Z,39.60
2022-12-05T12:05:37.135Z,38.80
2022-12-05T12:08:18.216Z,44.47
2022-12-05T12:10:56.183Z,43.33
2022-12-05T12:13:38.714Z,37.95
2022-12-05T12:16:15.593Z,39.20
2022-12-05T12:19:21.388Z,43.10
2022-12-05T12:22:05.516Z,41.72
2022-12-05T12:24:54.141Z,39.20
2022-12-05T12:27:35.677Z,45.70
2022-12-05T12:30:12.446Z,45.70
2022-12-05T12:32:56.161Z,42.42
2022-12-05T12:35:32.146Z,47.90
2022-12-05T12:38:14.536Z,41.40
2022-12-05T12:40:49.756Z,43.88
2022-12-05T12:43:53.184Z,53.38
2022-12-05T12:46:35.226Z,46.83
2022-12-05T12:49:21.689Z,46.10
2022-12-05T12:51:53.896Z,48.78
2022-12-05T12:55:02.909Z,52.08
2022-12-05T12:57:40.399Z,56.95
2022-12-05T13:00:21.352Z,51.92
2022-12-05T13:02:53.322Z,48.92
2022-12-05T13:05:27.992Z,54.95
2022-12-05T13:08:02.086Z,54.17
2022-12-05T13:10:34.830Z,56.80
2022-12-05T13:13:07.225Z,53.13
2022-12-05T13:15:41.052Z,51.83
2022-12-05T13:18:16.032Z,54.78
2022-12-05T13:20:45.502Z,56.20
2022-12-05T13:23:16.291Z,62.83
2022-12-05T13:25:45.976Z,53.38
2022-12-05T13:28:26.972Z,57.42
2022-12-05T13:31:01.325Z,59.35
2022-12-05T13:33:33.795Z,55.10
2022-12-05T13:36:26.620Z,54.10
2022-12-05T13:39:20.721Z,61.70
2022-12-05T13:42:09.031Z,64.78
2022-12-05T13:44:42.220Z,67.32
2022-12-05T13:47:25.966Z,64.43
2022-12-05T13:49:57.749Z,61.05
2022-12-05T13:52:31.113Z,78.57
2022-12-05T13:55:04.056Z,71.43
2022-12-05T13:57:53.283Z,73.22
2022-12-05T14:00:28.316Z,74.80
2022-12-05T14:03:03.264Z,71.88
2022-12-05T14:05:46.590Z,77.70
2022-12-05T14:08:56.058Z,78.32
2022-12-05T14:11:24.800Z,69.50
2022-12-05T14:14:00.747Z,70.20
2022-12-05T14:16:46.223Z,75.25
2022-12-05T14:19:54.114Z,65.97
2022-12-05T14:22:57.620Z,72.43
2022-12-05T14:25:58.345Z,74.05
2022-12-05T14:28:44.747Z,69.22
2022-12-05T14:31:29.870Z,80.25
2022-12-05T14:34:17.960Z,64.65
2022-12-05T14:36:58.809Z,73.97
2022-12-05T14:39:40.957Z,81.10
2022-12-05T14:42:23.865Z,71.88
2022-12-05T14:44:54.899Z,82.65
2022-12-05T14:47:26.973Z,78.05
2022-12-05T14:50:02.171Z,75.45
2022-12-05T14:52:34.031Z,87.95
2022-12-05T14:55:09.539Z,87.32
2022-12-05T14:57:46.401Z,88.15
2022-12-05T15:00:22.119Z,71.88
2022-12-05T15:02:52.896Z,80.72
2022-12-05T15:05:27.390Z,79.85
2022-12-05T15:07:58.581Z,84.70
2022-12-05T15:10:30.625Z,90.60
2022-12-05T15:13:01.453Z,77.32
2022-12-05T15:15:36.516Z,88.07
2022-12-05T15:18:15.851Z,90.88
2022-12-05T15:20:51.733Z,88.35
2022-12-05T15:23:42.303Z,84.88
2022-12-05T15:29:12.876Z,96.45
2022-12-05T15:31:47.221Z,78.00
2022-12-05T15:34:22.813Z,76.88
2022-12-05T15:36:58.599Z,90.95
2022-12-05T15:39:28.602Z,90.68
2022-12-05T15:41:58.183Z,93.47
2022-12-05T15:44:36.093Z,85.40
2022-12-05T15:47:05.543Z,96.93
2022-12-05T15:49:33.400Z,82.80
2022-12-05T15:52:24.301Z,85.72
2022-12-05T15:54:53.624Z,91.72
2022-12-05T15:57:26.940Z,86.97
2022-12-05T16:02:35.478Z,85.53
2022-12-05T16:05:03.552Z,76.43
2022-12-05T16:07:33.233Z,92.55
2022-12-05T16:10:02.533Z,90.50
2022-12-05T16:12:36.721Z,92.97
2022-12-05T16:15:09.442Z,80.88
2022-12-05T16:17:43.283Z,86.28
2022-12-05T16:20:13.637Z,98.20
2022-12-05T16:22:48.393Z,87.50
2022-12-05T16:25:18.586Z,86.40
2022-12-05T16:27:57.917Z,83.82
2022-12-05T16:30:26.783Z,94.88
2022-12-05T16:33:04.717Z,81.65
2022-12-05T16:35:37.391Z,89.10
2022-12-05T16:38:11.295Z,86.00
2022-12-05T16:40:40.793Z,77.97
2022-12-05T16:43:20.323Z,85.68
2022-12-05T16:45:50.130Z,85.53
2022-12-05T16:48:25.931Z,78.25
2022-12-05T16:50:54.973Z,83.13
2022-12-05T16:53:30.851Z,83.55
2022-12-05T16:55:59.909Z,85.40
2022-12-05T16:58:30.888Z,95.25
2022-12-05T17:01:03.453Z,91.47
2022-12-05T17:03:35.661Z,79.20
2022-12-05T17:06:04.538Z,85.88
2022-12-05T17:08:33.877Z,82.72
2022-12-05T17:11:03.691Z,76.32
2022-12-05T17:13:32.688Z,83.55
2022-12-05T17:16:00.712Z,82.93
2022-12-05T17:18:31.780Z,77.35
2022-12-05T17:21:02.455Z,85.20
2022-12-05T17:23:30.336Z,85.57
2022-12-05T17:26:00.198Z,82.40
2022-12-05T17:28:28.095Z,83.47
2022-12-05T17:30:56.057Z,79.53
2022-12-05T17:33:24.210Z,81.43
2022-12-05T17:35:52.275Z,76.25
2022-12-05T17:38:20.867Z,72.10
2022-12-05T17:40:48.972Z,73.68
2022-12-05T17:43:24.539Z,69.38
2022-12-05T17:45:54.051Z,63.53
2022-12-05T17:48:22.497Z,66.05
2022-12-05T17:50:50.654Z,63.88
2022-12-05T17:53:20.619Z,68.10
2022-12-05T17:55:49.018Z,57.28
2022-12-05T17:58:18.871Z,58.55
2022-12-05T18:00:48.330Z,60.88
2022-12-05T18:03:18.697Z,65.78
2022-12-05T18:05:47.093Z,70.97
2022-12-05T18:08:16.984Z,66.80
2022-12-05T18:10:47.215Z,61.65
2022-12-05T18:13:15.669Z,71.55
2022-12-05T18:15:47.086Z,62.78
2022-12-05T18:18:17.085Z,61.58
2022-12-05T18:20:45.377Z,63.72
2022-12-05T18:23:13.362Z,59.92
2022-12-05T18:25:41.606Z,53.83
2022-12-05T18:28:09.461Z,59.80
2022-12-05T18:30:37.443Z,65.50
2022-12-05T18:33:06.744Z,53.83
2022-12-05T18:35:43.437Z,62.40
2022-12-05T18:38:12.264Z,59.15
2022-12-05T18:40:40.193Z,55.55
2022-12-05T18:43:08.061Z,54.80
2022-12-05T18:45:35.955Z,61.17
2022-12-05T18:48:23.346Z,57.20
2022-12-05T18:50:53.745Z,58.97
2022-12-05T18:53:21.976Z,56.95
2022-12-05T18:56:21.610Z,64.30
2022-12-05T18:58:38.790Z,56.55
2022-12-05T19:01:09.153Z,56.03
2022-12-05T19:03:38.627Z,63.28
2022-12-05T19:06:14.342Z,59.92
2022-12-05T19:08:42.741Z,64.30
2022-12-05T19:11:10.615Z,59.58
2022-12-05T19:13:38.557Z,59.85
2022-12-05T19:16:08.398Z,59.65
2022-12-05T19:18:36.638Z,57.28
2022-12-05T19:21:04.668Z,64.90
2022-12-05T19:23:35.794Z,60.60
2022-12-05T19:26:05.389Z,64.10
2022-12-05T19:28:33.511Z,65.45
2022-12-05T19:31:02.975Z,65.78
2022-12-05T19:33:34.578Z,61.58
2022-12-05T19:36:07.885Z,64.88
2022-12-05T19:41:05.655Z,61.30
2022-12-05T19:43:35.007Z,79.75
2022-12-05T19:46:04.906Z,77.82
2022-12-05T19:48:33.959Z,72.10
2022-12-05T19:51:02.917Z,80.40
2022-12-05T19:53:33.270Z,62.85
2022-12-05T19:56:03.148Z,84.55
2022-12-05T19:58:32.828Z,72.45
2022-12-05T20:01:08.660Z,72.88
2022-12-05T20:03:36.571Z,77.53
2022-12-05T20:06:05.380Z,67.63
2022-12-05T20:08:33.453Z,68.93
2022-12-05T20:11:06.306Z,73.50
2022-12-05T20:13:46.604Z,75.47
2022-12-05T20:16:16.523Z,66.20
2022-12-05T20:18:44.461Z,68.60
2022-12-05T20:21:15.688Z,68.95
2022-12-05T20:23:43.552Z,67.43
2022-12-05T20:26:14.582Z,67.28
2022-12-05T20:28:42.721Z,60.67
2022-12-05T20:31:12.621Z,60.58
2022-12-05T20:33:41.532Z,56.50
2022-12-05T20:36:11.682Z,53.83
2022-12-05T20:38:39.936Z,53.15
2022-12-05T20:41:11.027Z,53.42
2022-12-05T20:43:40.274Z,49.10
2022-12-05T20:46:11.088Z,47.40
2022-12-05T20:48:39.100Z,48.50
2022-12-05T20:51:08.245Z,50.50
2022-12-05T20:53:37.343Z,43.92
2022-12-05T20:56:06.331Z,43.22
2022-12-05T20:58:34.439Z,38.58
2022-12-05T21:01:05.657Z,43.38
2022-12-05T21:03:33.952Z,41.13
2022-12-05T21:06:07.296Z,39.00
2022-12-05T21:08:35.178Z,37.45
2022-12-05T21:11:03.054Z,40.55
2022-12-05T21:13:30.932Z,39.30
2022-12-05T21:15:59.019Z,31.52
2022-12-05T21:18:29.778Z,31.33
2022-12-05T21:20:58.700Z,32.40
2022-12-05T21:23:27.018Z,34.10
2022-12-05T21:25:55.557Z,33.55
2022-12-05T21:28:23.400Z,34.53
2022-12-05T21:30:51.360Z,30.90
2022-12-05T21:33:20.557Z,34.00
2022-12-05T21:35:56.393Z,31.80
2022-12-05T21:38:24.324Z,36.15
2022-12-05T21:40:52.780Z,40.53
2022-12-05T21:43:20.607Z,34.42
2022-12-05T21:45:53.100Z,36.60
2022-12-05T21:48:21.957Z,33.72
2022-12-05T21:50:50.014Z,33.88
2022-12-05T21:53:23.303Z,36.10
2022-12-05T21:56:00.660Z,35.67
2022-12-05T21:58:28.918Z,29.05
2022-12-05T22:00:56.769Z,35.60
2022-12-05T22:03:25.108Z,38.65
2022-12-05T22:06:00.855Z,33.35
2022-12-05T22:08:34.539Z,37.63
2022-12-05T22:11:06.703Z,34.55
2022-12-05T22:13:35.203Z,32.55
2022-12-05T22:16:06.849Z,38.05
2022-12-05T22:18:35.274Z,35.03
2022-12-05T22:21:05.566Z,32.35
2022-12-05T22:23:36.129Z,34.90
2022-12-05T22:26:06.753Z,34.30
2022-12-05T22:28:36.060Z,36.58
2022-12-05T22:31:06.493Z,39.45
2022-12-05T22:33:35.748Z,32.72
2022-12-05T22:36:04.546Z,31.73
2022-12-05T22:38:39.311Z,33.75
2022-12-05T22:41:09.881Z,29.67
2022-12-05T22:43:40.602Z,32.05
2022-12-05T22:46:11.716Z,34.17
2022-12-05T22:48:39.815Z,38.13
2022-12-05T22:51:09.604Z,32.22
2022-12-05T22:53:39.607Z,29.15
2022-12-05T22:56:09.193Z,26.02
2022-12-05T22:58:37.510Z,31.67
2022-12-05T23:01:14.018Z,29.42
2022-12-05T23:03:42.635Z,32.60
2022-12-05T23:06:14.618Z,32.50
2022-12-05T23:08:45.733Z,29.00
2022-12-05T23:11:13.666Z,26.00
2022-12-05T23:13:41.589Z,27.50
2022-12-05T23:16:11.927Z,27.48
2022-12-05T23:18:47.612Z,27.38
2022-12-05T23:21:20.368Z,27.67
2022-12-05T23:23:51.617Z,29.10
2022-12-05T23:26:20.794Z,28.40
2022-12-05T23:28:48.728Z,26.00
2022-12-05T23:31:17.140Z,24.02
2022-12-05T23:33:45.038Z,24.83
2022-12-05T23:36:13.980Z,25.15
2022-12-05T23:38:43.878Z,23.60
2022-12-05T23:41:15.585Z,23.15
2022-12-05T23:43:44.474Z,24.42
2022-12-05T23:46:14.258Z,22.45
2022-12-05T23:48:42.209Z,23.30
2022-12-05T23:51:12.667Z,24.75
2022-12-05T23:53:42.187Z,21.77
2022-12-05T23:56:11.535Z,23.02
2022-12-05T23:58:41.106Z,21.33
